createdAt,value
2023-10-01T00:00:23.556Z,29.50
2023-10-01T00:05:23.894Z,31.20
2023-10-01T00:10:22.335Z,28.00
2023-10-01T00:15:23.398Z,25.80
2023-10-01T00:20:21.685Z,19.60
2023-10-01T00:25:19.984Z,19.80
2023-10-01T00:30:21.238Z,18.00
2023-10-01T00:35:18.480Z,21.40
2023-10-01T00:40:17.787Z,17.70
2023-10-01T00:45:18.067Z,20.10
2023-10-01T00:50:16.339Z,17.80
2023-10-01T00:55:15.632Z,18.10
2023-10-01T01:00:14.896Z,17.30
2023-10-01T01:05:14.161Z,17.30
2023-10-01T01:10:14.487Z,17.10
2023-10-01T01:15:13.753Z,17.10
2023-10-01T01:20:13.980Z,15.40
2023-10-01T01:25:12.330Z,16.30
2023-10-01T01:30:11.559Z,16.50
2023-10-01T01:35:09.797Z,15.90
2023-10-01T01:40:09.067Z,15.10
2023-10-01T01:45:07.344Z,14.50
2023-10-01T01:50:07.701Z,13.50
2023-10-01T01:55:07.960Z,15.10
2023-10-01T02:00:07.211Z,14.30
2023-10-01T02:05:05.480Z,14.30
2023-10-01T02:10:06.777Z,12.50
2023-10-01T02:15:04.022Z,14.00
2023-10-01T02:20:03.288Z,13.00
2023-10-01T02:25:02.579Z,13.60
2023-10-01T02:30:02.895Z,14.10
2023-10-01T02:35:01.188Z,13.10
2023-10-01T02:40:01.476Z,14.00
2023-10-01T02:45:00.767Z,12.30
2023-10-01T02:50:01.015Z,12.70
2023-10-01T02:54:59.297Z,12.10
2023-10-01T02:59:58.550Z,12.00
2023-10-01T03:04:56.832Z,13.00
2023-10-01T03:09:57.078Z,12.10
2023-10-01T03:14:57.295Z,12.40
2023-10-01T03:19:54.535Z,13.10
2023-10-01T03:24:53.811Z,13.10
2023-10-01T03:29:53.067Z,12.80
2023-10-01T03:34:52.341Z,11.80
2023-10-01T03:39:51.621Z,12.80
2023-10-01T03:44:50.898Z,11.90
2023-10-01T03:49:51.178Z,11.10
2023-10-01T03:54:50.461Z,12.40
2023-10-01T03:59:49.756Z,12.20
2023-10-01T04:04:48.075Z,11.00
2023-10-01T04:09:48.352Z,10.50
2023-10-01T04:14:46.620Z,11.30
2023-10-01T04:19:46.978Z,12.50
2023-10-01T04:24:46.222Z,12.40
2023-10-01T04:29:44.500Z,11.20
2023-10-01T04:34:44.755Z,11.70
2023-10-01T04:39:42.975Z,12.10
2023-10-01T04:44:44.236Z,11.10
2023-10-01T04:49:43.946Z,10.90
2023-10-01T04:54:40.865Z,11.40
2023-10-01T04:59:41.133Z,10.20
2023-10-01T05:04:40.557Z,10.80
2023-10-01T05:09:37.707Z,9.50
2023-10-01T05:14:38.055Z,11.20
2023-10-01T05:19:41.384Z,10.50
2023-10-01T05:24:36.427Z,10.70
2023-10-01T05:29:35.697Z,11.40
2023-10-01T05:34:36.026Z,11.00
2023-10-01T05:39:36.036Z,10.30
2023-10-01T05:44:34.496Z,10.20
2023-10-01T05:49:33.782Z,10.40
2023-10-01T05:54:34.656Z,10.80
2023-10-01T05:59:32.237Z,10.70
2023-10-01T06:04:31.544Z,10.90
2023-10-01T06:09:29.813Z,11.00
2023-10-01T06:14:30.106Z,12.00
2023-10-01T06:19:29.388Z,11.10
2023-10-01T06:24:29.624Z,11.00
2023-10-01T06:29:26.870Z,10.60
2023-10-01T06:34:26.626Z,10.80
2023-10-01T06:39:25.316Z,11.40
2023-10-01T06:44:24.583Z,11.50
2023-10-01T06:49:24.957Z,11.40
2023-10-01T06:54:24.023Z,11.80
2023-10-01T06:59:22.305Z,11.80
2023-10-01T07:04:22.620Z,12.60
2023-10-01T07:09:20.836Z,11.50
2023-10-01T07:14:20.147Z,11.30
2023-10-01T07:19:19.419Z,11.20
2023-10-01T07:24:18.667Z,11.80
2023-10-01T07:29:19.937Z,11.60
2023-10-01T07:34:17.252Z,12.40
2023-10-01T07:39:17.359Z,13.00
2023-10-01T07:44:15.660Z,10.70
2023-10-01T07:49:15.037Z,12.60
2023-10-01T07:54:13.249Z,11.80
2023-10-01T07:59:13.565Z,10.10
2023-10-01T08:04:12.905Z,10.20
2023-10-01T08:09:12.136Z,9.30
2023-10-01T08:14:13.431Z,9.90
2023-10-01T08:19:12.706Z,8.40
2023-10-01T08:24:09.933Z,11.20
2023-10-01T08:29:10.257Z,7.70
2023-10-01T08:34:08.598Z,9.40
2023-10-01T08:39:07.835Z,11.70
2023-10-01T08:44:17.212Z,10.40
2023-10-01T08:49:06.423Z,10.10
2023-10-01T08:54:05.660Z,8.60
2023-10-01T08:59:05.941Z,12.10
2023-10-01T09:04:04.254Z,12.60
2023-10-01T09:09:03.525Z,9.50
2023-10-01T09:14:02.791Z,14.10
2023-10-01T09:19:03.060Z,16.00
2023-10-01T09:24:01.309Z,15.30
2023-10-01T09:29:00.823Z,18.40
2023-10-01T09:34:00.822Z,19.50
2023-10-01T09:38:59.467Z,15.30
2023-10-01T09:43:58.431Z,19.50
2023-10-01T09:48:58.712Z,24.20
2023-10-01T09:53:57.017Z,15.00
2023-10-01T09:58:56.236Z,15.80
2023-10-01T10:03:54.542Z,13.40
2023-10-01T10:08:54.861Z,80.50
2023-10-01T10:13:54.180Z,57.30
2023-10-01T10:18:53.451Z,16.00
2023-10-01T10:23:52.712Z,38.60
2023-10-01T10:28:52.982Z,15.10
2023-10-01T10:33:51.358Z,17.40
2023-10-01T10:38:50.424Z,13.70
2023-10-01T10:43:49.833Z,14.40
2023-10-01T10:48:49.919Z,14.50
2023-10-01T10:53:48.150Z,23.70
2023-10-01T10:58:47.459Z,26.90
2023-10-01T11:03:50.818Z,21.90
2023-10-01T11:08:47.837Z,15.10
2023-10-01T11:13:45.134Z,20.10
2023-10-01T11:18:44.394Z,15.80
2023-10-01T11:23:43.700Z,18.40
2023-10-01T11:28:43.281Z,13.70
2023-10-01T11:33:44.194Z,16.20
2023-10-01T11:38:41.447Z,14.70
2023-10-01T11:43:41.810Z,15.20
2023-10-01T11:48:41.900Z,15.00
2023-10-01T11:53:41.157Z,15.10
2023-10-01T11:58:38.556Z,15.20
2023-10-01T12:03:38.746Z,15.20
2023-10-01T12:08:36.876Z,15.40
2023-10-01T12:13:38.147Z,14.70
2023-10-01T12:18:35.344Z,14.10
2023-10-01T12:23:35.621Z,14.50
2023-10-01T12:28:33.929Z,13.40
2023-10-01T12:33:34.159Z,14.80
2023-10-01T12:38:31.432Z,15.40
2023-10-01T12:43:33.716Z,14.90
2023-10-01T12:48:30.988Z,14.40
2023-10-01T12:53:30.234Z,14.30
2023-10-01T12:58:29.508Z,14.20
2023-10-01T13:03:29.835Z,13.90
2023-10-01T13:08:28.065Z,15.10
2023-10-01T13:13:28.375Z,15.20
2023-10-01T13:18:27.659Z,14.30
2023-10-01T13:23:26.984Z,14.00
2023-10-01T13:28:25.448Z,13.20
2023-10-01T13:33:24.712Z,14.20
2023-10-01T13:38:24.852Z,13.30
2023-10-01T13:43:23.235Z,13.40
2023-10-01T13:48:24.380Z,13.50
2023-10-01T13:53:22.416Z,13.90
2023-10-01T13:58:20.726Z,13.60
2023-10-01T14:03:19.985Z,13.20
2023-10-01T14:08:19.400Z,12.40
2023-10-01T14:13:17.597Z,13.20
2023-10-01T14:18:30.521Z,13.50
2023-10-01T14:23:17.878Z,11.90
2023-10-01T14:28:16.193Z,13.90
2023-10-01T14:33:14.798Z,13.10
2023-10-01T14:38:16.817Z,14.00
2023-10-01T14:43:13.055Z,12.90
2023-10-01T14:48:14.325Z,13.30
2023-10-01T14:53:12.515Z,13.80
2023-10-01T14:58:12.988Z,13.90
2023-10-01T15:03:09.937Z,13.90
2023-10-01T15:08:09.172Z,13.60
2023-10-01T15:13:19.968Z,15.10
2023-10-01T15:18:08.635Z,116.40
2023-10-01T15:23:08.712Z,30.70
2023-10-01T15:28:06.965Z,41.70
2023-10-01T15:33:06.336Z,49.80
2023-10-01T15:38:07.509Z,23.40
2023-10-01T15:43:04.781Z,16.60
2023-10-01T15:48:03.129Z,15.40
2023-10-01T15:53:03.430Z,14.00
2023-10-01T15:58:04.733Z,15.20
2023-10-01T16:03:03.220Z,15.40
2023-10-01T16:08:03.249Z,14.50
2023-10-01T16:13:01.581Z,13.90
2023-10-01T16:17:59.893Z,14.70
2023-10-01T16:23:00.297Z,14.70
2023-10-01T16:27:59.480Z,13.60
2023-10-01T16:32:58.714Z,14.00
2023-10-01T16:37:56.853Z,13.90
2023-10-01T16:42:55.932Z,14.10
2023-10-01T16:47:55.333Z,14.40
2023-10-01T16:52:54.426Z,13.50
2023-10-01T16:57:53.851Z,14.30
2023-10-01T17:02:53.154Z,16.60
2023-10-01T17:07:51.516Z,15.20
2023-10-01T17:12:51.749Z,13.70
2023-10-01T17:17:52.143Z,13.60
2023-10-01T17:22:50.244Z,13.30
2023-10-01T17:27:49.498Z,31.40
2023-10-01T17:32:48.680Z,18.60
2023-10-01T17:37:47.243Z,15.30
2023-10-01T17:42:47.259Z,15.40
2023-10-01T17:47:46.580Z,15.20
2023-10-01T17:52:48.980Z,14.70
2023-10-01T17:57:48.223Z,17.00
2023-10-01T18:02:45.453Z,13.70
2023-10-01T18:07:43.591Z,14.80
2023-10-01T18:12:42.985Z,16.50
2023-10-01T18:17:42.097Z,19.40
2023-10-01T18:22:41.414Z,19.50
2023-10-01T18:27:41.698Z,20.70
2023-10-01T18:32:39.989Z,18.90
2023-10-01T18:37:39.330Z,22.50
2023-10-01T18:42:39.450Z,26.20
2023-10-01T18:47:38.875Z,21.10
2023-10-01T18:52:37.966Z,25.30
2023-10-01T18:57:36.167Z,30.50
2023-10-01T19:02:36.256Z,34.60
2023-10-01T19:07:34.541Z,36.70
2023-10-01T19:12:33.821Z,36.20
2023-10-01T19:17:34.926Z,40.60
2023-10-01T19:22:45.595Z,45.40
2023-10-01T19:27:32.570Z,45.20
2023-10-01T19:32:30.934Z,46.00
2023-10-01T19:37:30.015Z,68.90
2023-10-01T19:42:31.294Z,70.80
2023-10-01T19:47:28.580Z,120.60
2023-10-01T19:52:28.708Z,75.50
2023-10-01T19:57:26.945Z,89.90
2023-10-01T20:02:27.310Z,59.70
2023-10-01T20:07:25.365Z,65.60
2023-10-01T20:12:24.373Z,67.10
2023-10-01T20:17:23.542Z,218.30
2023-10-01T20:22:22.507Z,112.70
2023-10-01T20:27:22.737Z,84.50
2023-10-01T20:32:22.166Z,99.80
2023-10-01T20:37:21.364Z,92.50
2023-10-01T20:42:20.357Z,74.00
2023-10-01T20:47:18.368Z,54.50
2023-10-01T20:52:17.899Z,51.20
2023-10-01T20:57:19.245Z,51.30
2023-10-01T21:02:16.542Z,54.40
2023-10-01T21:07:15.739Z,54.90
2023-10-01T21:12:16.801Z,51.90
2023-10-01T21:17:14.140Z,55.00
2023-10-01T21:22:14.216Z,55.30
2023-10-01T21:27:12.455Z,54.00
2023-10-01T21:32:11.831Z,52.90
2023-10-01T21:37:11.931Z,52.50
2023-10-01T21:42:11.219Z,51.60
2023-10-01T21:47:11.528Z,64.40
2023-10-01T21:52:08.764Z,205.50
2023-10-01T21:57:08.025Z,184.40
2023-10-01T22:02:07.354Z,165.00
2023-10-01T22:07:06.560Z,166.30
2023-10-01T22:12:06.619Z,328.50
2023-10-01T22:17:06.998Z,67.20
2023-10-01T22:22:06.049Z,91.40
2023-10-01T22:27:02.316Z,68.40
2023-10-01T22:32:02.709Z,113.50
2023-10-01T22:37:01.918Z,105.80
2023-10-01T22:42:02.014Z,101.80
2023-10-01T22:47:00.373Z,93.60
2023-10-01T22:51:59.484Z,91.90
2023-10-01T22:56:58.998Z,87.10
2023-10-01T23:01:59.133Z,90.10
2023-10-01T23:06:58.239Z,79.90
2023-10-01T23:11:56.465Z,78.50
2023-10-01T23:16:55.752Z,76.00
2023-10-01T23:21:57.992Z,70.80
2023-10-01T23:26:54.239Z,71.90
2023-10-01T23:31:54.598Z,68.10
2023-10-01T23:36:54.736Z,65.20
2023-10-01T23:41:52.108Z,68.90
2023-10-01T23:46:51.237Z,72.60
2023-10-01T23:51:50.546Z,64.00
2023-10-01T23:56:49.778Z,63.20
